createdAt,value
2023-05-14T00:01:54.137Z,101286.36
2023-05-14T00:05:20.994Z,101285.80
2023-05-14T00:08:47.809Z,101281.07
2023-05-14T00:12:14.870Z,101278.65
2023-05-14T00:15:41.426Z,101274.02
2023-05-14T00:19:08.757Z,101276.19
2023-05-14T00:22:37.513Z,101272.59
2023-05-14T00:26:10.604Z,101274.08
2023-05-14T00:29:40.167Z,101273.55
2023-05-14T00:33:07.440Z,101273.14
2023-05-14T00:36:34.292Z,101273.01
2023-05-14T00:40:01.242Z,101274.24
2023-05-14T00:43:27.975Z,101274.80
2023-05-14T00:46:56.529Z,101269.64
2023-05-14T00:50:24.594Z,101268.06
2023-05-14T00:53:56.311Z,101268.91
2023-05-14T00:57:23.628Z,101268.94
2023-05-14T01:00:50.871Z,101270.28
2023-05-14T01:04:19.225Z,101273.21
2023-05-14T01:07:56.714Z,101269.65
2023-05-14T01:11:31.246Z,101270.61
2023-05-14T01:15:06.000Z,101273.30
2023-05-14T01:18:35.279Z,101272.36
2023-05-14T01:22:01.823Z,101271.11
2023-05-14T01:25:28.959Z,101270.66
2023-05-14T01:28:58.830Z,101268.99
2023-05-14T01:32:26.948Z,101272.33
2023-05-14T01:35:54.830Z,101268.00
2023-05-14T01:39:22.109Z,101263.29
2023-05-14T01:42:52.084Z,101264.34
2023-05-14T01:46:21.236Z,101258.52
2023-05-14T01:49:47.947Z,101256.52
2023-05-14T01:53:14.810Z,101253.67
2023-05-14T01:56:43.443Z,101248.95
2023-05-14T02:00:14.408Z,101254.97
2023-05-14T02:03:40.847Z,101250.94
2023-05-14T02:07:08.442Z,101248.77
2023-05-14T02:10:34.884Z,101246.70
2023-05-14T02:14:01.544Z,101241.95
2023-05-14T02:17:29.167Z,101240.90
2023-05-14T02:20:58.324Z,101245.12
2023-05-14T02:24:25.491Z,101244.12
2023-05-14T02:27:52.400Z,101241.64
2023-05-14T02:31:20.002Z,101239.79
2023-05-14T02:34:46.792Z,101236.25
2023-05-14T02:38:13.719Z,101239.59
2023-05-14T02:41:40.588Z,101235.98
2023-05-14T02:45:08.677Z,101235.80
2023-05-14T02:48:36.245Z,101234.90
2023-05-14T02:52:03.819Z,101229.89
2023-05-14T02:55:31.083Z,101230.35
2023-05-14T02:58:58.558Z,101226.84
2023-05-14T03:02:26.759Z,101225.95
2023-05-14T03:05:55.084Z,101224.78
2023-05-14T03:09:22.249Z,101230.23
2023-05-14T03:12:51.020Z,101231.74
2023-05-14T03:16:18.724Z,101236.77
2023-05-14T03:19:45.516Z,101237.41
2023-05-14T03:23:12.598Z,101239.27
2023-05-14T03:26:39.653Z,101236.41
2023-05-14T03:30:08.727Z,101233.38
2023-05-14T03:33:35.619Z,101232.91
2023-05-14T03:37:02.213Z,101227.40
2023-05-14T03:40:28.949Z,101231.52
2023-05-14T03:43:55.846Z,101226.73
2023-05-14T03:47:22.595Z,101229.04
2023-05-14T03:50:49.678Z,101221.29
2023-05-14T03:54:16.589Z,101217.33
2023-05-14T03:57:44.012Z,101214.52
2023-05-14T04:01:10.692Z,101213.14
2023-05-14T04:04:37.756Z,101212.56
2023-05-14T04:08:05.331Z,101210.58
2023-05-14T04:11:32.382Z,101209.36
2023-05-14T04:15:01.225Z,101211.06
2023-05-14T04:18:28.627Z,101210.23
2023-05-14T04:21:56.102Z,101207.40
2023-05-14T04:25:24.308Z,101204.90
2023-05-14T04:28:51.268Z,101203.33
2023-05-14T04:32:18.871Z,101201.61
2023-05-14T04:35:46.557Z,101203.45
2023-05-14T04:39:13.707Z,101202.94
2023-05-14T04:42:41.260Z,101207.31
2023-05-14T04:46:09.738Z,101205.27
2023-05-14T04:49:39.470Z,101202.23
2023-05-14T04:53:06.334Z,101202.36
2023-05-14T04:56:33.116Z,101194.61
2023-05-14T05:00:00.622Z,101195.27
2023-05-14T05:03:27.480Z,101196.45
2023-05-14T05:06:54.598Z,101195.41
2023-05-14T05:10:21.611Z,101191.03
2023-05-14T05:13:48.485Z,101193.23
2023-05-14T05:17:15.248Z,101190.70
2023-05-14T05:20:41.835Z,101187.04
2023-05-14T05:24:09.457Z,101185.16
2023-05-14T05:27:36.508Z,101180.45
2023-05-14T05:31:03.470Z,101179.33
2023-05-14T05:34:30.158Z,101180.69
2023-05-14T05:38:00.460Z,101179.35
2023-05-14T05:41:30.367Z,101183.55
2023-05-14T05:44:57.627Z,101180.42
2023-05-14T05:48:24.770Z,101177.35
2023-05-14T05:51:52.050Z,101176.34
2023-05-14T05:55:19.626Z,101177.63
2023-05-14T05:58:47.189Z,101177.26
2023-05-14T06:02:14.333Z,101176.84
2023-05-14T06:05:42.112Z,101174.74
2023-05-14T06:09:09.348Z,101168.70
2023-05-14T06:12:36.567Z,101164.25
2023-05-14T06:16:03.851Z,101159.58
2023-05-14T06:19:31.142Z,101160.81
2023-05-14T06:22:58.349Z,101161.20
2023-05-14T06:26:26.365Z,101159.29
2023-05-14T06:29:53.544Z,101161.20
2023-05-14T06:33:21.461Z,101157.16
2023-05-14T06:36:48.402Z,101155.09
2023-05-14T06:40:16.964Z,101157.44
2023-05-14T06:43:44.228Z,101157.52
2023-05-14T06:47:12.033Z,101152.75
2023-05-14T06:50:38.648Z,101152.70
2023-05-14T06:54:05.736Z,101153.64
2023-05-14T06:57:34.276Z,101156.92
2023-05-14T07:01:01.855Z,101156.34
2023-05-14T07:04:28.718Z,101154.89
2023-05-14T07:07:55.850Z,101151.44
2023-05-14T07:11:23.702Z,101144.55
2023-05-14T07:14:53.573Z,101142.88
2023-05-14T07:18:20.500Z,101145.73
2023-05-14T07:21:47.341Z,101143.39
2023-05-14T07:25:14.418Z,101144.91
2023-05-14T07:28:41.235Z,101142.04
2023-05-14T07:32:08.125Z,101135.92
2023-05-14T07:35:35.252Z,101128.96
2023-05-14T07:39:02.620Z,101126.85
2023-05-14T07:42:36.579Z,101121.20
2023-05-14T07:46:04.500Z,101116.89
2023-05-14T07:49:31.572Z,101110.42
2023-05-14T07:52:58.820Z,101109.95
2023-05-14T07:56:26.112Z,101105.15
2023-05-14T07:59:53.445Z,101104.00
2023-05-14T08:03:21.615Z,101099.02
2023-05-14T08:06:49.091Z,101091.35
2023-05-14T08:10:16.203Z,101093.27
2023-05-14T08:13:45.262Z,101084.28
2023-05-14T08:17:12.315Z,101083.70
2023-05-14T08:20:40.127Z,101080.05
2023-05-14T08:24:07.680Z,101079.39
2023-05-14T08:27:35.569Z,101080.05
2023-05-14T08:31:06.339Z,101072.52
2023-05-14T08:34:34.056Z,101071.41
2023-05-14T08:38:01.547Z,101061.95
2023-05-14T08:41:29.590Z,101054.94
2023-05-14T08:45:02.463Z,101050.96
2023-05-14T08:48:33.835Z,101048.80
2023-05-14T08:52:02.124Z,101048.80
2023-05-14T08:55:30.024Z,101045.15
2023-05-14T08:58:57.150Z,101041.60
2023-05-14T09:02:29.076Z,101044.17
2023-05-14T09:05:58.667Z,101040.38
2023-05-14T09:09:30.042Z,101034.96
2023-05-14T09:13:01.362Z,101027.05
2023-05-14T09:16:29.852Z,101024.90
2023-05-14T09:19:57.583Z,101027.75
2023-05-14T09:23:27.022Z,101020.21
2023-05-14T09:26:56.445Z,101010.86
2023-05-14T09:30:23.457Z,101008.05
2023-05-14T09:33:57.754Z,101011.17
2023-05-14T09:37:26.496Z,101013.52
2023-05-14T09:40:57.096Z,101008.02
2023-05-14T09:44:25.082Z,100998.98
2023-05-14T09:47:53.673Z,101000.63
2023-05-14T09:51:22.418Z,100990.22
2023-05-14T09:54:49.980Z,100988.30
2023-05-14T09:58:17.143Z,100975.34
2023-05-14T10:01:58.782Z,100976.77
2023-05-14T10:05:28.801Z,100975.34
2023-05-14T10:08:58.487Z,100974.41
2023-05-14T10:12:30.700Z,100971.55
2023-05-14T10:16:03.495Z,100955.30
2023-05-14T10:19:38.045Z,100954.61
2023-05-14T10:23:07.769Z,100951.55
2023-05-14T10:26:38.825Z,100947.66
2023-05-14T10:30:10.502Z,100947.97
2023-05-14T10:33:50.903Z,100942.70
2023-05-14T10:37:19.603Z,100936.08
2023-05-14T10:40:49.076Z,100931.60
2023-05-14T10:44:17.618Z,100924.23
2023-05-14T10:47:46.896Z,100925.33
2023-05-14T10:51:26.720Z,100917.11
2023-05-14T10:54:56.102Z,100915.28
2023-05-14T10:58:24.093Z,100908.14
2023-05-14T11:01:52.018Z,100903.75
2023-05-14T11:05:20.322Z,100906.89
2023-05-14T11:08:47.270Z,100902.24
2023-05-14T11:12:17.685Z,100897.92
2023-05-14T11:15:48.538Z,100900.69
2023-05-14T11:19:15.872Z,100899.94
2023-05-14T11:22:45.047Z,100898.14
2023-05-14T11:26:13.095Z,100895.91
2023-05-14T11:29:44.979Z,100888.94
2023-05-14T11:33:12.187Z,100883.64
2023-05-14T11:36:42.559Z,100881.84
2023-05-14T11:40:18.291Z,100870.34
2023-05-14T11:43:45.620Z,100868.17
2023-05-14T11:47:15.993Z,100863.06
2023-05-14T11:50:47.610Z,100862.98
2023-05-14T11:54:17.294Z,100858.13
2023-05-14T11:57:45.224Z,100857.98
2023-05-14T12:01:16.786Z,100855.20
2023-05-14T12:04:45.305Z,100852.20
2023-05-14T12:08:25.017Z,100843.96
2023-05-14T12:11:55.664Z,100828.88
2023-05-14T12:15:22.553Z,100824.39
2023-05-14T12:18:52.556Z,100823.27
2023-05-14T12:22:30.862Z,100819.34
2023-05-14T12:26:03.089Z,100816.42
2023-05-14T12:29:30.072Z,100812.49
2023-05-14T12:32:57.333Z,100816.33
2023-05-14T12:36:25.058Z,100814.16
2023-05-14T12:39:52.270Z,100814.17
2023-05-14T12:43:22.220Z,100810.16
2023-05-14T12:46:49.265Z,100802.17
2023-05-14T12:50:16.771Z,100801.23
2023-05-14T12:53:44.381Z,100794.59
2023-05-14T12:57:11.738Z,100792.01
2023-05-14T13:00:39.351Z,100789.65
2023-05-14T13:04:06.910Z,100785.71
2023-05-14T13:07:34.456Z,100785.83
2023-05-14T13:11:01.138Z,100779.13
2023-05-14T13:14:28.868Z,100776.23
2023-05-14T13:17:56.033Z,100773.45
2023-05-14T13:21:24.877Z,100773.20
2023-05-14T13:24:51.870Z,100771.42
2023-05-14T13:28:18.845Z,100765.92
2023-05-14T13:31:46.350Z,100755.46
2023-05-14T13:35:13.719Z,100755.77
2023-05-14T13:38:41.549Z,100751.63
2023-05-14T13:42:09.336Z,100750.05
2023-05-14T13:45:36.965Z,100749.04
2023-05-14T13:49:03.919Z,100751.36
2023-05-14T13:52:31.244Z,100741.89
2023-05-14T13:55:59.298Z,100735.08
2023-05-14T13:59:26.250Z,100736.94
2023-05-14T14:02:53.119Z,100738.30
2023-05-14T14:06:20.199Z,100730.29
2023-05-14T14:09:48.606Z,100726.63
2023-05-14T14:13:15.809Z,100729.00
2023-05-14T14:16:44.026Z,100724.34
2023-05-14T14:20:13.007Z,100716.33
2023-05-14T14:23:39.592Z,100712.00
2023-05-14T14:27:07.445Z,100701.23
2023-05-14T14:30:35.994Z,100703.31
2023-05-14T14:34:03.148Z,100702.55
2023-05-14T14:37:33.163Z,100696.61
2023-05-14T14:41:00.561Z,100696.43
2023-05-14T14:44:27.583Z,100689.71
2023-05-14T14:48:15.184Z,100683.02
2023-05-14T14:51:44.650Z,100678.33
2023-05-14T14:55:17.367Z,100674.80
2023-05-14T14:58:45.646Z,100679.65
2023-05-14T15:02:12.904Z,100679.16
2023-05-14T15:05:41.066Z,100677.42
2023-05-14T15:09:09.460Z,100670.88
2023-05-14T15:12:36.968Z,100673.29
2023-05-14T15:16:07.218Z,100671.95
2023-05-14T15:19:34.884Z,100667.29
2023-05-14T15:23:02.020Z,100658.33
2023-05-14T15:26:29.301Z,100658.27
2023-05-14T15:29:57.573Z,100651.86
2023-05-14T15:33:24.583Z,100647.98
2023-05-14T15:36:51.702Z,100651.05
2023-05-14T15:40:20.225Z,100652.95
2023-05-14T15:43:47.458Z,100651.36
2023-05-14T15:47:14.308Z,100643.79
2023-05-14T15:50:43.521Z,100642.77
2023-05-14T15:54:10.712Z,100636.86
2023-05-14T15:57:38.789Z,100632.66
2023-05-14T16:01:05.733Z,100627.17
2023-05-14T16:04:33.782Z,100623.19
2023-05-14T16:08:01.931Z,100622.69
2023-05-14T16:11:29.507Z,100617.98
2023-05-14T16:15:01.517Z,100617.79
2023-05-14T16:18:29.609Z,100618.15
2023-05-14T16:21:58.809Z,100616.39
2023-05-14T16:25:27.313Z,100612.55
2023-05-14T16:28:55.125Z,100611.88
2023-05-14T16:32:23.200Z,100610.88
2023-05-14T16:35:50.704Z,100605.02
2023-05-14T16:39:18.802Z,100597.80
2023-05-14T16:42:48.513Z,100600.89
2023-05-14T16:46:16.275Z,100595.71
2023-05-14T16:49:46.409Z,100593.34
2023-05-14T16:53:14.357Z,100590.73
2023-05-14T16:56:48.448Z,100591.63
2023-05-14T17:00:18.385Z,100591.14
2023-05-14T17:03:48.908Z,100589.84
2023-05-14T17:07:17.926Z,100590.59
2023-05-14T17:10:45.286Z,100591.33
2023-05-14T17:14:10.703Z,100588.39
2023-05-14T17:17:39.256Z,100588.88
2023-05-14T17:21:07.937Z,100586.64
2023-05-14T17:24:36.669Z,100583.82
2023-05-14T17:28:03.685Z,100581.48
2023-05-14T17:31:32.451Z,100581.14
2023-05-14T17:35:01.760Z,100579.51
2023-05-14T17:38:28.843Z,100577.38
2023-05-14T17:41:57.073Z,100577.50
2023-05-14T17:45:24.160Z,100582.08
2023-05-14T17:48:54.671Z,100581.59
2023-05-14T17:52:21.604Z,100579.81
2023-05-14T17:55:48.269Z,100581.09
2023-05-14T17:59:21.156Z,100579.02
2023-05-14T18:02:51.335Z,100585.74
2023-05-14T18:06:18.581Z,100581.21
2023-05-14T18:09:48.888Z,100582.77
2023-05-14T18:13:16.451Z,100582.55
2023-05-14T18:16:45.386Z,100580.42
2023-05-14T18:20:14.488Z,100579.90
2023-05-14T18:23:41.531Z,100580.15
2023-05-14T18:27:10.055Z,100576.38
2023-05-14T18:30:37.949Z,100577.58
2023-05-14T18:34:05.089Z,100577.06
2023-05-14T18:37:33.021Z,100576.42
2023-05-14T18:41:00.797Z,100576.52
2023-05-14T18:44:28.653Z,100581.73
2023-05-14T18:47:56.904Z,100576.14
2023-05-14T18:51:23.796Z,100575.99
2023-05-14T18:54:52.586Z,100579.64
2023-05-14T18:58:19.348Z,100580.19
2023-05-14T19:01:46.323Z,100582.00
2023-05-14T19:05:17.520Z,100584.79
2023-05-14T19:08:50.414Z,100588.55
2023-05-14T19:12:19.246Z,100589.99
2023-05-14T19:15:47.187Z,100586.91
2023-05-14T19:19:14.769Z,100587.59
2023-05-14T19:22:41.760Z,100586.23
2023-05-14T19:26:09.090Z,100590.25
2023-05-14T19:29:37.212Z,100587.34
2023-05-14T19:33:04.687Z,100586.51
2023-05-14T19:36:33.448Z,100587.77
2023-05-14T19:40:00.307Z,100586.21
2023-05-14T19:43:30.134Z,100582.25
2023-05-14T19:46:57.134Z,100577.79
2023-05-14T19:50:24.521Z,100576.23
2023-05-14T19:53:53.225Z,100569.10
2023-05-14T19:57:20.528Z,100567.14
2023-05-14T20:00:51.364Z,100565.84
2023-05-14T20:04:18.467Z,100562.21
2023-05-14T20:07:49.334Z,100559.20
2023-05-14T20:11:18.216Z,100555.98
2023-05-14T20:14:45.888Z,100556.98
2023-05-14T20:18:17.543Z,100552.94
2023-05-14T20:21:45.221Z,100549.15
2023-05-14T20:25:13.965Z,100542.84
2023-05-14T20:28:43.628Z,100536.61
2023-05-14T20:32:12.804Z,100534.95
2023-05-14T20:35:41.027Z,100535.82
2023-05-14T20:39:07.785Z,100532.61
2023-05-14T20:42:36.634Z,100532.45
2023-05-14T20:46:09.407Z,100533.91
2023-05-14T20:49:38.449Z,100529.42
2023-05-14T20:53:07.452Z,100527.92
2023-05-14T20:56:36.654Z,100523.93
2023-05-14T21:00:07.310Z,100522.85
2023-05-14T21:03:44.707Z,100516.67
2023-05-14T21:07:12.186Z,100511.69
2023-05-14T21:10:39.833Z,100505.89
2023-05-14T21:14:07.344Z,100502.11
2023-05-14T21:17:36.075Z,100496.77
2023-05-14T21:21:05.560Z,100496.19
2023-05-14T21:24:35.424Z,100498.98
2023-05-14T21:28:05.018Z,100496.59
2023-05-14T21:31:32.226Z,100495.19
2023-05-14T21:35:00.058Z,100494.76
2023-05-14T21:38:27.858Z,100496.50
2023-05-14T21:41:55.988Z,100496.45
2023-05-14T21:45:24.083Z,100495.98
2023-05-14T21:48:51.805Z,100491.89
2023-05-14T21:52:19.103Z,100491.14
2023-05-14T21:55:46.707Z,100485.50
2023-05-14T21:59:13.970Z,100482.23
2023-05-14T22:02:41.297Z,100477.81
2023-05-14T22:06:09.141Z,100473.67
2023-05-14T22:09:36.067Z,100474.11
2023-05-14T22:13:02.820Z,100466.14
2023-05-14T22:16:29.626Z,100457.60
2023-05-14T22:19:56.433Z,100454.62
2023-05-14T22:23:23.864Z,100449.42
2023-05-14T22:26:51.134Z,100448.55
2023-05-14T22:30:18.643Z,100438.25
2023-05-14T22:33:48.231Z,100432.14
2023-05-14T22:37:14.945Z,100431.61
2023-05-14T22:40:42.103Z,100430.28
2023-05-14T22:44:10.196Z,100425.25
2023-05-14T22:47:38.805Z,100426.84
2023-05-14T22:51:06.640Z,100420.83
2023-05-14T22:54:33.864Z,100417.50
2023-05-14T22:58:01.129Z,100413.86
2023-05-14T23:01:28.484Z,100405.66
2023-05-14T23:04:55.879Z,100399.20
2023-05-14T23:08:23.796Z,100392.92
2023-05-14T23:11:50.940Z,100388.23
2023-05-14T23:15:17.904Z,100385.30
2023-05-14T23:18:44.611Z,100378.04
2023-05-14T23:22:11.819Z,100375.45
2023-05-14T23:25:38.632Z,100366.02
2023-05-14T23:29:06.240Z,100362.55
2023-05-14T23:32:33.243Z,100357.64
2023-05-14T23:36:00.372Z,100354.48
2023-05-14T23:39:27.488Z,100352.52
2023-05-14T23:42:56.491Z,100349.48
2023-05-14T23:46:24.345Z,100344.32
2023-05-14T23:49:51.686Z,100339.52
2023-05-14T23:53:19.863Z,100335.52
2023-05-14T23:56:47.413Z,100328.63
